📊 Raw Sensor Data
Showing records 34026 to 34050 of 84,821 total
| ID | Distance (ft) | Battery V | Battery A | Int Temp (°F) | Int Humid (%) | Ext Temp (°F) | Solar V | RSSI | SNR | Time Stamp |
|---|---|---|---|---|---|---|---|---|---|---|
| 50808 | 15.3 | 3.89 | -5 | 71 | 48 | 72 | 0.10 | -71 | 8 | 08/31/2025 09:45 PM |
| 50807 | 15.3 | 3.83 | -5 | 73 | 48 | 74 | 0.10 | -73 | 8 | 08/31/2025 09:30 PM |
| 50806 | 15.3 | 3.89 | -5 | 74 | 48 | 75 | 0.00 | -71 | 8 | 08/31/2025 09:15 PM |
| 50805 | 15.3 | 3.83 | -5 | 75 | 49 | 76 | 0.00 | -70 | 7 | 08/31/2025 09:00 PM |
| 50804 | 15.3 | 3.89 | -5 | 76 | 50 | 77 | 0.00 | -71 | 8 | 08/31/2025 08:45 PM |
| 50803 | 15.3 | 3.83 | -5 | 77 | 51 | 77 | 0.00 | -72 | 8 | 08/31/2025 08:30 PM |
| 50802 | 15.3 | 3.89 | -5 | 79 | 52 | 78 | 0.00 | -71 | 8 | 08/31/2025 08:15 PM |
| 50801 | 15.3 | 3.89 | -5 | 81 | 54 | 81 | 0.10 | -72 | 8 | 08/31/2025 08:00 PM |
| 50800 | 15.3 | 3.82 | -9 | 83 | 56 | 82 | 3.20 | -71 | 7 | 08/31/2025 07:45 PM |
| 50799 | 15.4 | 3.83 | -6 | 87 | 56 | 83 | 4.30 | -69 | 7 | 08/31/2025 07:30 PM |
| 50798 | 15.4 | 3.90 | 0 | 94 | 54 | 88 | 4.50 | -70 | 7 | 08/31/2025 07:15 PM |
| 50797 | 15.4 | 3.92 | 8 | 97 | 53 | 91 | 4.50 | -71 | 7 | 08/31/2025 07:00 PM |
| 50796 | 15.4 | 3.89 | 23 | 101 | 52 | 94 | 4.60 | -71 | 8 | 08/31/2025 06:45 PM |
| 50795 | 15.5 | 3.98 | 24 | 104 | 51 | 96 | 4.50 | -70 | 8 | 08/31/2025 06:30 PM |
| 50794 | 15.4 | 3.93 | 0 | 107 | 49 | 99 | 5.10 | -71 | 8 | 08/31/2025 06:15 PM |
| 50793 | 15.5 | 3.85 | 0 | 108 | 49 | 101 | 5.10 | -71 | 7 | 08/31/2025 06:00 PM |
| 50792 | 15.7 | 3.85 | 0 | 109 | 49 | 100 | 5.10 | -71 | 8 | 08/31/2025 05:45 PM |
| 50791 | 15.6 | 3.85 | 0 | 110 | 48 | 100 | 5.10 | -71 | 8 | 08/31/2025 05:30 PM |
| 50790 | 15.7 | 3.85 | 0 | 111 | 48 | 100 | 5.10 | -72 | 6 | 08/31/2025 05:15 PM |
| 50789 | 15.7 | 3.93 | 0 | 112 | 47 | 100 | 5.10 | -71 | 7 | 08/31/2025 05:00 PM |
| 50788 | 15.7 | 3.85 | 0 | 113 | 47 | 101 | 5.10 | -71 | 9 | 08/31/2025 04:45 PM |
| 50787 | 15.6 | 3.85 | 0 | 113 | 47 | 101 | 5.10 | -71 | 8 | 08/31/2025 04:30 PM |
| 50786 | 15.6 | 3.86 | 0 | 114 | 46 | 102 | 5.10 | -71 | 8 | 08/31/2025 04:15 PM |
| 50785 | 15.7 | 3.86 | 0 | 115 | 45 | 103 | 5.10 | -70 | 8 | 08/31/2025 04:00 PM |
| 50784 | 15.7 | 3.87 | 0 | 115 | 44 | 104 | 5.20 | -71 | 8 | 08/31/2025 03:45 PM |